createdAt,value
2019-03-27T00:01:52.079Z,25.40
2019-03-27T00:04:24.094Z,24.33
2019-03-27T00:06:58.018Z,20.10
2019-03-27T00:09:30.321Z,18.53
2019-03-27T00:12:03.581Z,21.50
2019-03-27T00:14:39.204Z,26.13
2019-03-27T00:17:11.580Z,23.60
2019-03-27T00:19:45.290Z,22.73
2019-03-27T00:22:18.634Z,26.03
2019-03-27T00:24:51.391Z,23.37
2019-03-27T00:27:23.727Z,27.33
2019-03-27T00:29:56.000Z,24.83
2019-03-27T00:32:31.629Z,22.90
2019-03-27T00:35:03.800Z,21.93
2019-03-27T00:37:36.867Z,22.87
2019-03-27T00:40:09.779Z,23.43
2019-03-27T00:42:42.115Z,19.97
2019-03-27T00:45:26.015Z,21.10
2019-03-27T00:47:48.624Z,21.03
2019-03-27T00:50:22.112Z,23.20
2019-03-27T00:52:54.261Z,22.53
2019-03-27T00:55:26.555Z,26.30
2019-03-27T00:57:58.755Z,23.27
2019-03-27T01:00:36.252Z,24.63
2019-03-27T01:03:08.426Z,25.00
2019-03-27T01:05:40.675Z,24.63
2019-03-27T01:08:16.014Z,23.83
2019-03-27T01:10:48.286Z,26.30
2019-03-27T01:13:20.574Z,21.37
2019-03-27T01:15:52.913Z,24.47
2019-03-27T01:18:25.079Z,24.47
2019-03-27T01:20:57.251Z,26.10
2019-03-27T01:23:29.262Z,25.23
2019-03-27T01:26:01.696Z,23.57
2019-03-27T01:28:34.361Z,25.63
2019-03-27T01:31:06.670Z,27.90
2019-03-27T01:33:38.932Z,23.03
2019-03-27T01:36:14.478Z,24.90
2019-03-27T01:38:46.823Z,24.83
2019-03-27T01:41:19.110Z,27.97
2019-03-27T01:43:51.277Z,24.67
2019-03-27T01:46:23.507Z,24.00
2019-03-27T01:48:55.709Z,25.17
2019-03-27T01:51:28.008Z,27.27
2019-03-27T01:54:00.330Z,28.23
2019-03-27T01:56:32.616Z,29.07
2019-03-27T01:59:04.905Z,31.03
2019-03-27T02:01:37.122Z,22.43
2019-03-27T02:04:09.370Z,26.80
2019-03-27T02:06:43.201Z,27.70
2019-03-27T02:09:15.555Z,24.17
2019-03-27T02:11:47.960Z,29.30
2019-03-27T02:14:23.011Z,24.37
2019-03-27T02:16:55.267Z,26.90
2019-03-27T02:19:27.491Z,25.30
2019-03-27T02:21:59.684Z,26.33
2019-03-27T02:24:32.654Z,29.73
2019-03-27T02:27:05.088Z,25.97
2019-03-27T02:29:37.271Z,25.47
2019-03-27T02:32:09.580Z,27.60
2019-03-27T02:34:41.702Z,28.67
2019-03-27T02:37:15.004Z,31.40
2019-03-27T02:39:47.581Z,31.57
2019-03-27T02:42:19.897Z,29.87
2019-03-27T02:44:52.315Z,29.00
2019-03-27T02:47:24.674Z,29.47
2019-03-27T02:49:57.502Z,27.30
2019-03-27T02:52:29.723Z,27.80
2019-03-27T02:55:01.988Z,26.83
2019-03-27T02:57:34.235Z,27.90
2019-03-27T03:00:08.377Z,27.90
2019-03-27T03:02:40.470Z,30.50
2019-03-27T03:05:13.069Z,25.30
2019-03-27T03:07:45.270Z,27.73
2019-03-27T03:10:19.677Z,29.97
2019-03-27T03:12:51.968Z,27.00
2019-03-27T03:15:25.700Z,31.50
2019-03-27T03:17:58.241Z,27.73
2019-03-27T03:20:30.443Z,31.67
2019-03-27T03:23:02.785Z,28.40
2019-03-27T03:25:35.050Z,28.50
2019-03-27T03:28:07.409Z,31.90
2019-03-27T03:30:39.629Z,34.73
2019-03-27T03:33:11.981Z,33.53
2019-03-27T03:35:45.322Z,31.17
2019-03-27T03:38:17.645Z,31.53
2019-03-27T03:40:49.866Z,27.60
2019-03-27T03:43:22.129Z,30.77
2019-03-27T03:45:54.509Z,30.70
2019-03-27T03:48:27.562Z,34.87
2019-03-27T03:51:02.691Z,33.33
2019-03-27T03:53:35.752Z,31.83
2019-03-27T03:56:09.068Z,29.57
2019-03-27T03:58:43.726Z,34.60
2019-03-27T04:01:19.509Z,32.23
2019-03-27T04:03:52.721Z,34.50
2019-03-27T04:06:24.737Z,31.97
2019-03-27T04:08:56.758Z,32.33
2019-03-27T04:11:29.711Z,34.67
2019-03-27T04:14:01.808Z,34.70
2019-03-27T04:16:33.958Z,37.73
2019-03-27T04:19:05.945Z,35.40
2019-03-27T04:21:38.584Z,31.20
2019-03-27T04:24:10.587Z,34.97
2019-03-27T04:26:43.320Z,37.27
2019-03-27T04:29:15.376Z,34.93
2019-03-27T04:31:47.506Z,35.67
2019-03-27T04:34:19.556Z,32.47
2019-03-27T04:36:54.122Z,31.93
2019-03-27T04:39:26.334Z,37.77
2019-03-27T04:41:58.519Z,33.43
2019-03-27T04:44:33.120Z,30.90
2019-03-27T04:47:06.262Z,30.67
2019-03-27T04:49:38.623Z,31.00
2019-03-27T04:52:11.168Z,33.87
2019-03-27T04:54:43.301Z,35.90
2019-03-27T04:57:16.099Z,33.40
2019-03-27T04:59:48.252Z,33.87
2019-03-27T05:02:20.812Z,31.57
2019-03-27T05:04:54.160Z,33.87
2019-03-27T05:07:26.280Z,36.40
2019-03-27T05:09:58.636Z,36.57
2019-03-27T05:12:31.154Z,39.10
2019-03-27T05:15:03.472Z,37.77
2019-03-27T05:17:45.990Z,34.10
2019-03-27T05:20:10.404Z,35.13
2019-03-27T05:22:43.661Z,38.10
2019-03-27T05:25:15.913Z,35.07
2019-03-27T05:27:48.295Z,49.23
2019-03-27T05:30:30.182Z,35.27
2019-03-27T05:33:02.247Z,40.33
2019-03-27T05:35:34.354Z,34.63
2019-03-27T05:38:08.569Z,34.13
2019-03-27T05:40:43.451Z,40.87
2019-03-27T05:43:15.552Z,35.37
2019-03-27T05:45:49.135Z,38.90
2019-03-27T05:48:21.257Z,35.60
2019-03-27T05:50:54.565Z,37.50
2019-03-27T05:53:26.697Z,38.13
2019-03-27T05:55:59.375Z,36.27
2019-03-27T05:58:31.488Z,32.97
2019-03-27T06:01:04.343Z,36.27
2019-03-27T06:03:36.435Z,37.23
2019-03-27T06:06:10.131Z,37.57
2019-03-27T06:08:42.326Z,36.13
2019-03-27T06:11:14.575Z,69.07
2019-03-27T06:13:46.829Z,41.33
2019-03-27T06:16:19.010Z,38.17
2019-03-27T06:18:51.265Z,37.00
2019-03-27T06:21:24.082Z,32.23
2019-03-27T06:23:57.656Z,30.40
2019-03-27T06:26:29.904Z,34.43
2019-03-27T06:29:02.074Z,34.07
2019-03-27T06:31:34.303Z,31.63
2019-03-27T06:34:07.438Z,39.33
2019-03-27T06:36:39.503Z,39.13
2019-03-27T06:39:11.694Z,32.97
2019-03-27T06:41:43.870Z,31.43
2019-03-27T06:44:16.106Z,39.13
2019-03-27T06:46:48.172Z,34.67
2019-03-27T06:49:20.280Z,38.93
2019-03-27T06:51:52.765Z,42.50
2019-03-27T06:54:24.922Z,37.27
2019-03-27T06:57:01.617Z,40.80
2019-03-27T06:59:34.205Z,30.33
2019-03-27T07:02:07.411Z,30.03
2019-03-27T07:04:39.579Z,24.00
2019-03-27T07:07:11.756Z,22.77
2019-03-27T07:09:45.446Z,18.07
2019-03-27T07:12:21.381Z,23.60
2019-03-27T07:14:52.699Z,19.90
2019-03-27T07:17:26.336Z,20.60
2019-03-27T07:19:59.094Z,22.40
2019-03-27T07:22:31.180Z,20.00
2019-03-27T07:25:03.333Z,19.73
2019-03-27T07:27:35.427Z,22.27
2019-03-27T07:30:09.542Z,19.60
2019-03-27T07:32:41.604Z,15.60
2019-03-27T07:35:15.574Z,14.93
2019-03-27T07:37:48.357Z,15.77
2019-03-27T07:40:22.952Z,18.77
2019-03-27T07:42:55.009Z,32.33
2019-03-27T07:45:27.444Z,12.20
2019-03-27T07:48:01.095Z,14.10
2019-03-27T07:50:35.714Z,16.93
2019-03-27T07:53:08.171Z,18.17
2019-03-27T07:55:40.371Z,16.60
2019-03-27T07:58:14.632Z,17.53
2019-03-27T08:00:46.746Z,14.03
2019-03-27T08:03:18.864Z,13.17
2019-03-27T08:05:51.002Z,18.43
2019-03-27T08:08:23.391Z,18.73
2019-03-27T08:10:55.434Z,12.57
2019-03-27T08:13:28.188Z,12.27
2019-03-27T08:16:00.994Z,13.07
2019-03-27T08:18:35.965Z,14.33
2019-03-27T08:21:08.237Z,11.63
2019-03-27T08:23:40.419Z,13.23
2019-03-27T08:26:15.961Z,15.07
2019-03-27T08:28:48.244Z,9.97
2019-03-27T08:31:21.041Z,12.50
2019-03-27T08:33:53.262Z,12.00
2019-03-27T08:36:25.409Z,11.43
2019-03-27T08:38:57.757Z,10.47
2019-03-27T08:41:29.880Z,13.57
2019-03-27T08:44:03.225Z,11.77
2019-03-27T08:46:35.939Z,11.07
2019-03-27T08:49:21.274Z,10.10
2019-03-27T08:51:43.997Z,11.67
2019-03-27T08:54:16.219Z,12.40
2019-03-27T08:56:48.669Z,12.70
2019-03-27T08:59:21.049Z,10.73
2019-03-27T09:01:53.307Z,13.40
2019-03-27T09:04:25.604Z,11.37
2019-03-27T09:06:58.173Z,7.70
2019-03-27T09:09:30.324Z,10.87
2019-03-27T09:12:02.433Z,8.53
2019-03-27T09:14:34.624Z,8.53
2019-03-27T09:17:06.798Z,9.47
2019-03-27T09:19:40.593Z,8.87
2019-03-27T09:22:15.134Z,9.03
2019-03-27T09:24:51.300Z,8.47
2019-03-27T09:27:24.776Z,10.33
2019-03-27T09:29:57.152Z,8.27
2019-03-27T09:32:30.335Z,9.83
2019-03-27T09:35:06.777Z,7.63
2019-03-27T09:37:42.559Z,8.33
2019-03-27T09:40:19.602Z,14.33
2019-03-27T09:42:54.020Z,8.93
2019-03-27T09:45:27.700Z,10.67
2019-03-27T09:48:01.539Z,9.47
2019-03-27T09:50:36.470Z,8.17
2019-03-27T09:53:09.798Z,32.23
2019-03-27T09:55:42.308Z,9.00
2019-03-27T09:58:17.936Z,12.70
2019-03-27T10:01:07.903Z,51.43
2019-03-27T10:03:40.055Z,15.80
2019-03-27T10:06:13.233Z,9.80
2019-03-27T10:08:47.641Z,18.07
2019-03-27T10:11:19.942Z,35.03
2019-03-27T10:13:52.222Z,17.77
2019-03-27T10:16:24.508Z,28.23
2019-03-27T10:18:57.727Z,21.20
2019-03-27T10:21:30.009Z,24.10
2019-03-27T10:24:02.295Z,24.87
2019-03-27T10:26:34.672Z,17.50
2019-03-27T10:29:06.949Z,23.90
2019-03-27T10:31:40.261Z,18.37
2019-03-27T10:34:12.853Z,16.27
2019-03-27T10:36:46.167Z,9.67
2019-03-27T10:39:18.481Z,8.47
2019-03-27T10:41:50.561Z,9.93
2019-03-27T10:44:25.033Z,11.00
2019-03-27T10:46:57.227Z,9.87
2019-03-27T10:49:30.149Z,9.57
2019-03-27T10:52:02.336Z,8.00
2019-03-27T10:54:36.354Z,9.23
2019-03-27T10:57:09.027Z,8.20
2019-03-27T10:59:42.643Z,9.00
2019-03-27T11:02:14.813Z,9.40
2019-03-27T11:04:47.345Z,9.07
2019-03-27T11:07:19.485Z,7.43
2019-03-27T11:09:51.539Z,7.73
2019-03-27T11:12:24.107Z,8.60
2019-03-27T11:14:56.298Z,7.57
2019-03-27T11:17:28.477Z,6.10
2019-03-27T11:20:00.855Z,6.50
2019-03-27T11:22:34.857Z,18.30
2019-03-27T11:25:10.048Z,20.97
2019-03-27T11:27:43.460Z,20.00
2019-03-27T11:30:16.079Z,41.60
2019-03-27T11:32:49.735Z,9.43
2019-03-27T11:35:21.941Z,6.07
2019-03-27T11:37:54.232Z,7.57
2019-03-27T11:40:26.237Z,10.67
2019-03-27T11:42:58.595Z,6.40
2019-03-27T11:45:31.015Z,6.33
2019-03-27T11:48:04.115Z,12.50
2019-03-27T11:50:44.748Z,10.27
2019-03-27T11:53:10.368Z,11.13
2019-03-27T11:55:42.572Z,7.20
2019-03-27T11:58:15.868Z,11.57
2019-03-27T12:00:54.543Z,7.63
2019-03-27T12:03:21.650Z,7.60
2019-03-27T12:05:53.900Z,8.97
2019-03-27T12:08:26.034Z,10.43
2019-03-27T12:10:58.255Z,7.10
2019-03-27T12:13:32.837Z,7.17
2019-03-27T12:16:06.537Z,6.70
2019-03-27T12:18:39.204Z,6.50
2019-03-27T12:21:11.289Z,8.13
2019-03-27T12:23:43.367Z,8.20
2019-03-27T12:26:15.560Z,10.53
2019-03-27T12:28:47.771Z,8.43
2019-03-27T12:31:21.178Z,7.17
2019-03-27T12:33:53.808Z,7.80
2019-03-27T12:36:25.999Z,6.27
2019-03-27T12:38:59.109Z,8.33
2019-03-27T12:41:33.034Z,11.60
2019-03-27T12:44:05.083Z,9.13
2019-03-27T12:46:38.513Z,7.30
2019-03-27T12:49:10.676Z,30.07
2019-03-27T12:51:43.951Z,14.20
2019-03-27T12:54:17.488Z,18.67
2019-03-27T12:56:49.667Z,11.03
2019-03-27T12:59:22.479Z,9.47
2019-03-27T13:01:54.524Z,10.40
2019-03-27T13:04:26.689Z,8.63
2019-03-27T13:06:58.757Z,8.03
2019-03-27T13:09:30.856Z,7.27
2019-03-27T13:12:04.930Z,7.87
2019-03-27T13:14:38.957Z,8.00
2019-03-27T13:17:10.939Z,10.43
2019-03-27T13:19:43.020Z,9.57
2019-03-27T13:22:15.040Z,9.37
2019-03-27T13:24:47.140Z,11.13
2019-03-27T13:27:19.149Z,10.10
2019-03-27T13:29:52.180Z,8.17
2019-03-27T13:32:24.236Z,6.53
2019-03-27T13:34:56.411Z,8.90
2019-03-27T13:37:29.583Z,7.87
2019-03-27T13:40:01.723Z,10.83
2019-03-27T13:42:33.815Z,7.10
2019-03-27T13:45:06.713Z,8.13
2019-03-27T13:47:39.980Z,9.87
2019-03-27T13:50:14.067Z,10.27
2019-03-27T13:52:46.308Z,8.63
2019-03-27T13:55:18.664Z,9.33
2019-03-27T13:57:50.888Z,11.70
2019-03-27T14:00:23.968Z,10.07
2019-03-27T14:02:56.187Z,11.33
2019-03-27T14:09:41.939Z,17.27
2019-03-27T14:12:18.661Z,18.17
2019-03-27T14:26:02.781Z,17.87
2019-03-27T14:28:37.789Z,19.67
2019-03-27T14:31:10.546Z,28.83
2019-03-27T14:33:43.318Z,24.30
2019-03-27T14:36:16.992Z,22.43
2019-03-27T14:38:50.141Z,60.17
2019-03-27T14:41:29.543Z,42.40
2019-03-27T14:44:03.104Z,32.80
2019-03-27T14:46:35.339Z,28.40
2019-03-27T14:49:07.691Z,22.10
2019-03-27T14:51:39.911Z,22.50
2019-03-27T14:54:12.055Z,25.83
2019-03-27T14:56:44.215Z,20.90
2019-03-27T14:59:16.309Z,12.73
2019-03-27T15:01:48.594Z,16.87
2019-03-27T15:04:20.737Z,15.87
2019-03-27T15:06:52.751Z,19.40
2019-03-27T15:09:24.918Z,23.63
2019-03-27T15:11:57.053Z,31.70
2019-03-27T15:14:30.082Z,35.10
2019-03-27T15:17:05.652Z,33.87
2019-03-27T15:19:40.838Z,19.60
2019-03-27T15:22:22.320Z,16.03
2019-03-27T15:24:49.720Z,27.90
2019-03-27T15:27:23.617Z,39.50
2019-03-27T15:29:56.915Z,11.07
2019-03-27T15:32:34.456Z,20.27
2019-03-27T15:35:07.547Z,12.57
2019-03-27T15:37:41.874Z,11.67
2019-03-27T15:40:15.578Z,15.67
2019-03-27T15:42:47.996Z,13.23
2019-03-27T15:45:20.520Z,12.10
2019-03-27T15:47:55.013Z,10.67
2019-03-27T15:50:30.639Z,12.83
2019-03-27T15:53:04.823Z,10.53
2019-03-27T15:55:39.101Z,13.07
2019-03-27T15:58:12.108Z,12.80
2019-03-27T16:00:44.353Z,12.47
2019-03-27T16:03:16.266Z,10.03
2019-03-27T16:05:49.595Z,10.60
2019-03-27T16:08:23.425Z,10.83
2019-03-27T16:10:55.699Z,17.27
2019-03-27T16:13:29.331Z,11.13
2019-03-27T16:16:01.364Z,9.60
2019-03-27T16:18:34.408Z,8.17
2019-03-27T16:21:07.639Z,8.63
2019-03-27T16:23:39.865Z,8.73
2019-03-27T16:26:12.039Z,11.83
2019-03-27T16:28:55.342Z,10.07
2019-03-27T16:31:27.510Z,14.93
2019-03-27T16:34:02.764Z,12.53
2019-03-27T16:36:35.301Z,14.47
2019-03-27T16:39:09.484Z,17.07
2019-03-27T16:41:41.753Z,14.30
2019-03-27T16:44:15.976Z,21.03
2019-03-27T16:46:49.210Z,20.17
2019-03-27T16:49:21.196Z,19.93
2019-03-27T16:51:56.383Z,9.80
2019-03-27T16:54:28.106Z,11.20
2019-03-27T16:57:01.560Z,14.00
2019-03-27T16:59:33.859Z,9.13
2019-03-27T17:02:06.124Z,10.97
2019-03-27T17:04:38.276Z,13.43
2019-03-27T17:07:10.436Z,14.03
2019-03-27T17:09:42.611Z,11.93
2019-03-27T17:12:14.721Z,17.90
2019-03-27T17:14:46.792Z,12.13
2019-03-27T17:17:18.879Z,16.73
2019-03-27T17:19:52.607Z,18.83
2019-03-27T17:22:24.996Z,108.20
2019-03-27T17:24:59.381Z,131.70
2019-03-27T17:27:31.886Z,142.67
2019-03-27T17:30:15.635Z,81.70
2019-03-27T17:32:47.946Z,79.03
2019-03-27T17:35:22.299Z,80.73
2019-03-27T17:37:54.882Z,58.87
2019-03-27T17:40:26.946Z,113.53
2019-03-27T17:42:59.014Z,84.90
2019-03-27T17:45:31.553Z,53.43
2019-03-27T17:48:03.639Z,21.93
2019-03-27T17:50:36.219Z,16.30
2019-03-27T17:53:08.886Z,25.57
2019-03-27T17:55:41.578Z,54.17
2019-03-27T17:58:13.712Z,19.83
2019-03-27T18:00:53.781Z,5.00
2019-03-27T18:03:26.344Z,3.10
2019-03-27T18:05:58.383Z,5.40
2019-03-27T18:08:30.536Z,10.17
2019-03-27T18:11:08.268Z,7.43
2019-03-27T18:13:40.847Z,14.53
2019-03-27T18:16:17.038Z,5.17
2019-03-27T18:18:49.028Z,8.07
2019-03-27T18:21:21.422Z,8.93
2019-03-27T18:23:54.246Z,6.47
2019-03-27T18:26:26.789Z,5.97
2019-03-27T18:29:00.458Z,13.33
2019-03-27T18:31:33.034Z,6.57
2019-03-27T18:34:05.240Z,6.73
2019-03-27T18:36:37.545Z,7.83
2019-03-27T18:39:12.131Z,4.70
2019-03-27T18:41:46.593Z,8.13
2019-03-27T18:44:20.860Z,6.73
2019-03-27T18:46:53.056Z,12.63
2019-03-27T18:49:26.184Z,19.80
2019-03-27T18:51:58.305Z,17.23
2019-03-27T18:54:32.744Z,22.47
2019-03-27T18:57:05.019Z,9.47
2019-03-27T18:59:40.712Z,9.17
2019-03-27T19:02:12.698Z,9.77
2019-03-27T19:04:45.255Z,14.73
2019-03-27T19:07:18.479Z,4.97
2019-03-27T19:09:50.648Z,8.00
2019-03-27T19:12:22.752Z,3.03
2019-03-27T19:14:54.786Z,7.13
2019-03-27T19:17:28.011Z,3.67
2019-03-27T19:20:00.390Z,8.67
2019-03-27T19:22:32.542Z,10.87
2019-03-27T19:25:04.702Z,4.63
2019-03-27T19:27:37.062Z,5.70
2019-03-27T19:30:09.958Z,7.70
2019-03-27T19:32:42.247Z,2.37
2019-03-27T19:35:16.189Z,3.67
2019-03-27T19:37:48.290Z,13.10
2019-03-27T19:40:20.346Z,6.07
2019-03-27T19:42:53.763Z,9.20
2019-03-27T19:45:25.972Z,8.67
2019-03-27T19:47:58.445Z,5.73
2019-03-27T19:50:30.462Z,12.93
2019-03-27T19:53:02.696Z,6.23
2019-03-27T19:55:34.766Z,12.53
2019-03-27T19:58:08.186Z,20.07
2019-03-27T20:00:40.972Z,10.37
2019-03-27T20:03:14.436Z,3.67
2019-03-27T20:05:47.070Z,6.33
2019-03-27T20:08:19.123Z,5.00
2019-03-27T20:10:51.184Z,7.90
2019-03-27T20:13:23.269Z,11.63
2019-03-27T20:15:55.302Z,6.07
2019-03-27T20:18:28.756Z,6.30
2019-03-27T20:21:02.038Z,7.03
2019-03-27T20:23:34.417Z,6.00
2019-03-27T20:26:06.436Z,3.53
2019-03-27T20:28:39.810Z,4.70
2019-03-27T20:31:12.374Z,4.47
2019-03-27T20:33:44.571Z,5.70
2019-03-27T20:36:18.563Z,4.73
2019-03-27T20:38:50.907Z,5.77
2019-03-27T20:41:24.294Z,5.33
2019-03-27T20:43:57.698Z,6.70
2019-03-27T20:46:31.805Z,7.13
2019-03-27T20:49:04.978Z,5.77
2019-03-27T20:51:42.363Z,3.37
2019-03-27T20:54:15.474Z,4.27
2019-03-27T20:56:47.686Z,3.93
2019-03-27T20:59:19.839Z,3.50
2019-03-27T21:01:51.978Z,3.90
2019-03-27T21:04:24.782Z,6.17
2019-03-27T21:06:57.028Z,2.97
2019-03-27T21:09:30.212Z,4.50
2019-03-27T21:12:02.189Z,7.77
2019-03-27T21:14:34.255Z,5.93
2019-03-27T21:17:07.277Z,4.80
2019-03-27T21:19:39.304Z,9.23
2019-03-27T21:22:11.357Z,5.53
2019-03-27T21:24:43.979Z,4.83
2019-03-27T21:27:17.642Z,7.33
2019-03-27T21:29:53.573Z,3.97
2019-03-27T21:32:25.753Z,3.47
2019-03-27T21:34:57.862Z,5.53
2019-03-27T21:37:30.820Z,3.20
2019-03-27T21:40:02.848Z,5.40
2019-03-27T21:42:34.961Z,8.50
2019-03-27T21:45:09.388Z,7.90
2019-03-27T21:47:41.463Z,7.03
2019-03-27T21:50:13.576Z,6.03
2019-03-27T21:52:59.556Z,6.90
2019-03-27T21:55:22.869Z,8.63
2019-03-27T21:57:54.404Z,25.93
2019-03-27T22:00:39.526Z,5.73
2019-03-27T22:03:11.599Z,5.47
2019-03-27T22:05:43.866Z,3.83
2019-03-27T22:08:18.808Z,7.63
2019-03-27T22:10:50.841Z,6.43
2019-03-27T22:13:22.931Z,7.50
2019-03-27T22:15:54.973Z,6.20
2019-03-27T22:18:30.680Z,14.70
2019-03-27T22:21:02.665Z,6.03
2019-03-27T22:23:35.627Z,6.60
2019-03-27T22:26:08.049Z,12.50
2019-03-27T22:28:40.137Z,7.40
2019-03-27T22:31:12.341Z,10.33
2019-03-27T22:33:45.712Z,8.80
2019-03-27T22:36:17.775Z,9.67
2019-03-27T22:38:49.775Z,4.40
2019-03-27T22:41:22.238Z,9.40
2019-03-27T22:43:54.369Z,6.73
2019-03-27T22:46:26.397Z,10.43
2019-03-27T22:48:58.406Z,15.13
2019-03-27T22:51:30.565Z,5.23
2019-03-27T22:54:02.492Z,6.60
2019-03-27T22:56:34.753Z,7.50
2019-03-27T22:59:06.925Z,5.47
2019-03-27T23:01:48.956Z,5.37
2019-03-27T23:04:29.021Z,11.03
2019-03-27T23:07:02.527Z,5.17
2019-03-27T23:09:35.782Z,8.27
2019-03-27T23:12:07.920Z,5.90
2019-03-27T23:14:39.941Z,7.30
2019-03-27T23:17:11.941Z,9.80
2019-03-27T23:19:43.876Z,9.60
2019-03-27T23:22:15.919Z,6.53
2019-03-27T23:24:47.888Z,8.90
2019-03-27T23:27:20.113Z,11.20
2019-03-27T23:29:52.382Z,5.17
2019-03-27T23:32:24.650Z,6.67
2019-03-27T23:34:57.059Z,5.50
2019-03-27T23:37:29.333Z,5.10
2019-03-27T23:40:03.242Z,6.57
2019-03-27T23:42:35.426Z,7.17
2019-03-27T23:45:08.395Z,5.33
2019-03-27T23:47:40.670Z,6.10
2019-03-27T23:50:13.055Z,5.03
2019-03-27T23:52:45.318Z,5.30
2019-03-27T23:55:18.209Z,10.13
2019-03-27T23:57:50.648Z,5.80
